Time;durP1;ratioP1;P1;durP2;ratioP2;P2;SDS_P1;SDS_P2;PMS_P1;PMS_P2;Temp;Humidity;BMP_temperature;BMP_pressure;BME280_temperature;BME280_humidity;BME280_pressure;Samples;Min_cycle;Max_cycle;Signal;HPM_P1;HPM_P2
2022/11/18 00:01:07;;;;;;;;;28.75;27.75;;;;;6.53;60.89;97433.53;6182238;28;96599;-66
2022/11/18 00:04:11;;;;;;;;;34.40;31.40;;;;;6.67;60.88;97435.97;6186918;28;96328;-65
2022/11/18 00:07:14;;;;;;;;;26.60;24.60;;;;;6.79;60.79;97442.97;6186298;28;96828;-65
2022/11/18 00:10:18;;;;;;;;;27.50;25.50;;;;;6.74;60.68;97436.69;6184428;28;96304;-65
2022/11/18 00:16:43;;;;;;;;;29.60;28.80;;;;;6.54;60.68;97442.38;6166418;28;96373;-65
2022/11/18 00:19:47;;;;;;;;;27.80;26.80;;;;;6.48;61.00;97435.28;6187063;28;97518;-65
2022/11/18 00:22:50;;;;;;;;;31.00;29.75;;;;;6.41;61.18;97432.69;6185024;28;96428;-65
2022/11/18 00:25:53;;;;;;;;;27.60;26.40;;;;;6.53;61.30;97433.53;6167054;28;97269;-64
2022/11/18 00:28:57;;;;;;;;;30.00;29.00;;;;;6.49;61.16;97434.22;6150691;28;96797;-64
2022/11/18 00:32:01;;;;;;;;;28.75;28.75;;;;;6.38;61.04;97430.47;6167907;28;96322;-64
2022/11/18 00:35:06;;;;;;;;;23.00;23.00;;;;;6.30;61.45;97435.38;6186465;28;96719;-64
2022/11/18 00:38:09;;;;;;;;;25.75;25.75;;;;;6.47;61.18;97437.13;6148700;28;96701;-64
2022/11/18 00:41:15;;;;;;;;;27.40;25.40;;;;;6.46;61.10;97442.69;6184285;28;96761;-64
2022/11/18 00:44:18;;;;;;;;;31.00;27.60;;;;;6.60;61.23;97433.41;6186021;28;96702;-65
2022/11/18 00:47:22;;;;;;;;;24.75;22.00;;;;;6.64;60.50;97423.88;6184676;28;96367;-64
2022/11/18 00:50:25;;;;;;;;;30.00;28.80;;;;;6.62;60.12;97420.63;6184737;28;96668;-64
2022/11/18 00:53:29;;;;;;;;;37.00;32.50;;;;;6.66;60.25;97423.63;6185196;28;96540;-65
2022/11/18 00:56:32;;;;;;;;;29.00;28.00;;;;;6.59;60.27;97434.47;6184519;28;97626;-65
2022/11/18 00:59:36;;;;;;;;;33.00;30.40;;;;;6.56;60.55;97428.75;6184860;28;96218;-65
2022/11/18 01:02:40;;;;;;;;;28.50;26.50;;;;;6.63;60.53;97426.78;6184799;28;96258;-65
2022/11/18 01:05:44;;;;;;;;;31.00;29.50;;;;;6.66;60.22;97419.09;6185135;28;97246;-65
2022/11/18 01:08:47;;;;;;;;;30.00;27.00;;;;;6.63;60.35;97416.06;6182507;28;96542;-65
2022/11/18 01:15:11;;;;;;;;;29.00;28.00;;;;;6.67;59.94;97411.88;6166233;28;96679;-64
2022/11/18 01:18:16;;;;;;;;;26.60;25.40;;;;;6.64;60.05;97417.72;6187293;28;96592;-64
2022/11/18 01:21:20;;;;;;;;;30.60;28.00;;;;;6.62;59.88;97417.94;6171580;28;96401;-64
2022/11/18 01:24:24;;;;;;;;;29.50;26.50;;;;;6.64;60.22;97415.84;6183964;28;96931;-65
2022/11/18 01:27:27;;;;;;;;;21.00;20.20;;;;;6.69;59.54;97407.13;6188970;28;97213;-65
2022/11/18 01:30:33;;;;;;;;;27.75;27.25;;;;;6.77;59.65;97412.94;6185892;28;96509;-66
2022/11/18 01:33:38;;;;;;;;;24.75;23.00;;;;;6.85;59.09;97409.06;6169996;28;96706;-66
2022/11/18 01:36:41;;;;;;;;;29.20;27.80;;;;;6.89;58.76;97412.94;6189544;28;96781;-65
2022/11/18 01:39:45;;;;;;;;;26.40;25.00;;;;;6.95;58.80;97410.13;6187974;28;96536;-65
2022/11/18 01:42:48;;;;;;;;;20.40;19.60;;;;;6.92;58.41;97420.50;6168391;28;98489;-65
2022/11/18 01:45:53;;;;;;;;;30.40;29.00;;;;;6.76;58.16;97405.94;6188001;28;96418;-65
2022/11/18 01:49:02;;;;;;;;;30.00;29.00;;;;;6.82;58.23;97415.72;6187456;28;97524;-65
2022/11/18 01:52:06;;;;;;;;;25.25;23.75;;;;;6.79;58.48;97410.81;6188534;28;96500;-65
2022/11/18 01:55:14;;;;;;;;;26.00;24.50;;;;;6.65;58.68;97397.91;6183072;28;96493;-65
2022/11/18 01:58:23;;;;;;;;;25.00;24.00;;;;;6.60;58.58;97409.31;6169867;28;96406;-65
2022/11/18 02:01:28;;;;;;;;;28.60;27.00;;;;;6.74;58.65;97405.38;6186484;28;97740;-65
2022/11/18 02:04:34;;;;;;;;;23.60;22.00;;;;;6.64;58.63;97388.25;6186778;28;96390;-65
2022/11/18 02:07:41;;;;;;;;;22.20;21.20;;;;;6.56;58.81;97399.28;6178431;28;96681;-65
2022/11/18 02:10:45;;;;;;;;;22.00;20.40;;;;;6.51;59.14;97397.31;6186276;28;96830;-65
2022/11/18 02:13:48;;;;;;;;;27.00;26.40;;;;;6.43;59.37;97392.31;6188019;28;97373;-65
2022/11/18 02:17:04;;;;;;;;;29.20;27.20;;;;;6.48;59.57;97390.59;6187378;28;96599;-65
2022/11/18 02:20:31;;;;;;;;;21.60;20.60;;;;;6.54;59.59;97378.13;6188211;28;97042;-65
2022/11/18 02:24:14;;;;;;;;;23.40;22.00;;;;;6.65;59.61;97371.13;6178153;28;98424;-65
2022/11/18 02:27:46;;;;;;;;;26.40;25.40;;;;;6.67;59.30;97361.00;6135214;28;98156;-64
2022/11/18 02:30:59;;;;;;;;;26.00;26.00;;;;;6.63;59.38;97362.53;6179153;28;96449;-65
2022/11/18 02:34:09;;;;;;;;;26.20;23.00;;;;;6.63;59.60;97366.03;6181480;28;96662;-64
2022/11/18 02:37:18;;;;;;;;;22.80;21.00;;;;;6.59;59.65;97356.00;6183045;28;96915;-64
2022/11/18 02:40:25;;;;;;;;;29.00;28.00;;;;;6.63;60.30;97354.50;6186704;28;96533;-64
2022/11/18 02:43:33;;;;;;;;;29.00;28.00;;;;;6.56;60.13;97361.81;6184192;28;96434;-64
2022/11/18 02:46:40;;;;;;;;;27.60;26.60;;;;;6.53;60.46;97365.78;6170630;28;96464;-65
2022/11/18 02:49:49;;;;;;;;;29.60;28.20;;;;;6.57;60.59;97364.25;6187309;28;97313;-65
2022/11/18 02:52:57;;;;;;;;;21.00;19.80;;;;;6.64;60.72;97377.53;6188583;28;96955;-65
2022/11/18 02:56:03;;;;;;;;;24.50;22.00;;;;;6.54;60.44;97364.75;6187539;28;96430;-65
2022/11/18 02:59:07;;;;;;;;;32.00;30.00;;;;;6.60;60.46;97377.19;6186898;28;96222;-64
2022/11/18 03:02:16;;;;;;;;;30.00;29.00;;;;;6.62;60.78;97374.28;6183135;28;96529;-64
2022/11/18 03:05:27;;;;;;;;;28.20;26.20;;;;;6.56;60.99;97353.78;6182588;28;96347;-64
2022/11/18 03:08:38;;;;;;;;;24.75;23.75;;;;;6.59;60.24;97372.06;6187470;28;96254;-64
2022/11/18 03:11:51;;;;;;;;;21.20;19.60;;;;;6.62;60.25;97371.59;6187490;28;97636;-64
2022/11/18 03:15:05;;;;;;;;;29.00;26.25;;;;;6.64;60.54;97366.84;6179939;28;96785;-64
2022/11/18 03:18:19;;;;;;;;;25.33;24.33;;;;;6.64;60.43;97359.63;6188454;28;96396;-64
2022/11/18 03:21:30;;;;;;;;;29.20;27.80;;;;;6.57;60.52;97355.41;6165019;28;96671;-65
2022/11/18 03:24:38;;;;;;;;;27.00;25.50;;;;;6.52;60.68;97351.59;6180659;28;96300;-64
2022/11/18 03:27:50;;;;;;;;;32.50;30.00;;;;;6.47;60.71;97356.00;6170062;28;96459;-64
2022/11/18 03:30:59;;;;;;;;;28.80;27.20;;;;;6.37;61.26;97350.41;6185424;28;96934;-64
2022/11/18 03:34:12;;;;;;;;;27.50;26.00;;;;;6.37;61.43;97353.09;6182013;28;96440;-64
2022/11/18 03:37:18;;;;;;;;;29.25;27.25;;;;;6.42;61.52;97354.03;6187930;28;96613;-64
2022/11/18 03:40:26;;;;;;;;;25.67;25.33;;;;;6.43;61.55;97354.84;6187689;28;96528;-64
2022/11/18 03:43:34;;;;;;;;;28.00;25.00;;;;;6.47;61.14;97354.16;6168663;28;96663;-64
2022/11/18 03:46:42;;;;;;;;;25.25;24.25;;;;;6.48;61.27;97347.75;6186743;28;96654;-64
2022/11/18 03:49:52;;;;;;;;;27.00;24.40;;;;;6.38;61.40;97354.72;6167788;28;97670;-65
2022/11/18 03:52:56;;;;;;;;;32.00;29.00;;;;;6.38;61.71;97354.72;6169378;28;96936;-65
2022/11/18 03:56:06;;;;;;;;;28.40;26.20;;;;;6.35;61.79;97349.84;6186942;28;96371;-65
2022/11/18 03:59:22;;;;;;;;;26.50;25.75;;;;;6.40;61.81;97352.66;6168528;28;98451;-64
2022/11/18 04:02:28;;;;;;;;;27.60;26.20;;;;;6.31;61.70;97341.44;6183415;28;97781;-65
2022/11/18 04:05:38;;;;;;;;;26.25;24.25;;;;;6.38;61.92;97339.47;6187392;28;96268;-65
2022/11/18 04:08:46;;;;;;;;;26.50;23.50;;;;;6.43;61.75;97333.44;6185551;28;96658;-65
2022/11/18 04:12:04;;;;;;;;;26.80;25.40;;;;;6.35;61.34;97307.81;6176380;28;96474;-65
2022/11/18 04:15:08;;;;;;;;;24.80;24.20;;;;;6.44;61.25;97329.72;6187096;28;96686;-64
2022/11/18 04:18:12;;;;;;;;;23.00;22.00;;;;;6.21;61.22;97330.50;6187245;28;96555;-63
2022/11/18 04:21:16;;;;;;;;;23.75;22.50;;;;;6.13;61.90;97328.19;6187715;28;96379;-64
2022/11/18 04:24:20;;;;;;;;;28.60;26.60;;;;;6.19;62.03;97318.41;6187501;28;96199;-64
2022/11/18 04:27:23;;;;;;;;;27.00;25.00;;;;;6.31;61.76;97324.56;6167836;28;99189;-64
2022/11/18 04:30:26;;;;;;;;;26.50;24.75;;;;;6.39;61.67;97319.72;6174525;28;96737;-63
2022/11/18 04:33:30;;;;;;;;;22.00;20.75;;;;;6.35;61.82;97317.72;6167326;28;96521;-63
2022/11/18 04:36:35;;;;;;;;;18.80;18.60;;;;;6.30;61.92;97317.63;6183215;28;96284;-65
2022/11/18 04:39:38;;;;;;;;;27.00;25.00;;;;;6.38;61.74;97328.78;6186921;28;97363;-64
2022/11/18 04:42:42;;;;;;;;;22.80;22.00;;;;;6.21;62.11;97327.00;6167423;28;96734;-65
2022/11/18 04:45:45;;;;;;;;;21.80;21.40;;;;;6.19;62.59;97308.53;6184004;28;96982;-64
2022/11/18 04:48:48;;;;;;;;;23.00;22.00;;;;;6.16;62.25;97313.53;6185639;28;96604;-63
2022/11/18 04:51:54;;;;;;;;;20.80;19.20;;;;;6.21;62.06;97313.63;6164847;28;97297;-63
2022/11/18 04:54:57;;;;;;;;;27.00;26.00;;;;;6.20;62.63;97317.38;6183819;28;96100;-63
2022/11/18 04:58:00;;;;;;;;;17.80;17.40;;;;;6.21;62.79;97317.13;6185164;28;96473;-64
2022/11/18 05:01:03;;;;;;;;;17.60;16.00;;;;;6.09;62.45;97327.84;6184448;28;97015;-66
2022/11/18 05:04:08;;;;;;;;;23.20;21.80;;;;;6.04;62.57;97325.03;6184025;28;96930;-65
2022/11/18 05:07:15;;;;;;;;;27.40;26.40;;;;;6.13;62.54;97320.16;6167742;28;98506;-65
2022/11/18 05:10:19;;;;;;;;;23.00;22.00;;;;;6.04;62.58;97310.84;6184559;28;96513;-65
2022/11/18 05:13:21;;;;;;;;;26.00;24.33;;;;;6.22;62.53;97334.00;6184591;28;96500;-65
2022/11/18 05:16:24;;;;;;;;;21.00;20.60;;;;;6.20;62.30;97330.75;6185011;28;96571;-65
2022/11/18 05:19:28;;;;;;;;;28.00;26.60;;;;;6.12;62.55;97320.38;6184676;28;97497;-65
2022/11/18 05:22:33;;;;;;;;;25.40;24.40;;;;;6.31;62.44;97340.63;6185809;28;97485;-65
2022/11/18 05:25:36;;;;;;;;;28.40;27.00;;;;;6.17;62.73;97324.00;6185330;28;96883;-64
2022/11/18 05:28:40;;;;;;;;;25.50;24.50;;;;;6.28;62.33;97339.25;6178203;28;96475;-64
2022/11/18 05:31:43;;;;;;;;;23.33;23.00;;;;;6.23;62.31;97344.47;6171301;28;97065;-65
2022/11/18 05:34:46;;;;;;;;;23.20;22.20;;;;;6.28;62.53;97343.78;6158460;28;96446;-64
2022/11/18 05:37:51;;;;;;;;;23.20;22.80;;;;;6.23;62.74;97339.13;6180209;28;96311;-64
2022/11/18 05:40:54;;;;;;;;;23.25;21.00;;;;;6.26;62.55;97345.84;6157336;28;97656;-64
2022/11/18 05:43:57;;;;;;;;;22.75;22.25;;;;;6.20;62.61;97347.63;6156392;28;96698;-64
2022/11/18 05:47:00;;;;;;;;;27.75;26.00;;;;;6.19;62.92;97345.16;6162851;28;96477;-64
2022/11/18 05:50:04;;;;;;;;;28.60;25.00;;;;;6.18;63.33;97355.06;6170473;28;97076;-64
2022/11/18 05:53:09;;;;;;;;;27.60;24.60;;;;;6.17;63.13;97350.75;6171327;28;97439;-64
2022/11/18 05:56:19;;;;;;;;;26.20;24.00;;;;;6.20;63.24;97352.16;6174244;28;96623;-64
2022/11/18 05:59:23;;;;;;;;;22.80;20.00;;;;;6.20;62.69;97354.84;6169941;28;96957;-65
2022/11/18 06:02:29;;;;;;;;;21.50;20.00;;;;;5.98;63.29;97339.31;6170834;28;96314;-64
2022/11/18 06:05:32;;;;;;;;;30.60;28.60;;;;;6.00;63.07;97357.81;6180952;28;97031;-64
2022/11/18 06:08:42;;;;;;;;;31.40;29.00;;;;;6.07;63.05;97370.03;6187175;28;96625;-64
2022/11/18 06:11:52;;;;;;;;;29.80;27.80;;;;;6.21;63.23;97364.47;6176810;28;97123;-64
2022/11/18 06:15:00;;;;;;;;;28.00;26.75;;;;;6.25;62.98;97366.47;6160468;28;96627;-64
2022/11/18 06:18:08;;;;;;;;;28.20;27.00;;;;;6.34;62.66;97364.25;6164735;28;98771;-64
2022/11/18 06:21:12;;;;;;;;;32.00;30.00;;;;;6.35;62.43;97371.25;6182102;28;96484;-64
2022/11/18 06:24:18;;;;;;;;;34.80;31.60;;;;;6.26;62.22;97375.28;6184928;28;98534;-65
2022/11/18 06:27:22;;;;;;;;;30.00;29.00;;;;;6.35;62.43;97377.41;6180386;28;96631;-64
2022/11/18 06:30:25;;;;;;;;;30.00;28.75;;;;;6.29;62.19;97374.84;6181240;28;96559;-64
2022/11/18 06:33:28;;;;;;;;;33.00;30.00;;;;;6.44;62.18;97391.28;6185811;28;96658;-65
2022/11/18 06:36:32;;;;;;;;;30.00;29.00;;;;;6.43;62.25;97389.63;6183244;28;96498;-64
2022/11/18 06:39:37;;;;;;;;;27.00;25.50;;;;;6.47;62.02;97404.19;6187784;28;96494;-65
2022/11/18 06:49:23;;;;;;;;;23.00;21.60;;;;;6.51;61.95;97398.13;6184564;28;96676;-64
2022/11/18 06:52:26;;;;;;;;;25.00;23.50;;;;;6.44;61.77;97397.44;6186063;28;97076;-66
2022/11/18 06:55:31;;;;;;;;;29.40;27.40;;;;;6.52;62.44;97389.06;6180687;28;97308;-65
2022/11/18 06:58:35;;;;;;;;;32.00;29.80;;;;;6.58;61.78;97394.53;6171928;28;98243;-64
2022/11/18 07:01:40;;;;;;;;;34.50;31.00;;;;;6.62;61.64;97403.72;6172556;28;96722;-64
2022/11/18 07:04:43;;;;;;;;;33.00;30.00;;;;;6.51;61.56;97414.19;6167392;28;97131;-64
2022/11/18 07:07:47;;;;;;;;;27.40;25.00;;;;;6.45;61.73;97425.03;6178227;28;96366;-65
2022/11/18 07:10:53;;;;;;;;;22.60;21.80;;;;;6.58;61.64;97424.81;6184963;28;96664;-65
2022/11/18 07:13:57;;;;;;;;;28.60;25.40;;;;;6.55;61.74;97417.22;6186218;28;96315;-64
2022/11/18 07:17:01;;;;;;;;;28.75;28.00;;;;;6.61;61.56;97408.25;6166309;28;97309;-65
2022/11/18 07:20:05;;;;;;;;;28.40;25.20;;;;;6.71;61.34;97410.38;6160833;28;96798;-64
2022/11/18 07:23:08;;;;;;;;;24.00;24.00;;;;;6.80;60.77;97404.41;6187589;28;96506;-64
2022/11/18 07:26:14;;;;;;;;;26.60;22.60;;;;;6.69;60.32;97399.91;6186162;28;97474;-64
2022/11/18 07:29:17;;;;;;;;;25.40;22.40;;;;;6.66;60.48;97397.66;6175958;28;96443;-65
2022/11/18 07:32:21;;;;;;;;;22.40;21.20;;;;;6.59;60.38;97406.88;6162807;28;96639;-65
2022/11/18 07:35:24;;;;;;;;;25.00;24.50;;;;;6.62;60.61;97401.06;6178061;28;96652;-64
2022/11/18 07:38:27;;;;;;;;;23.60;22.40;;;;;6.63;60.92;97394.66;6164879;28;98105;-63
2022/11/18 07:41:33;;;;;;;;;25.00;23.00;;;;;6.55;60.98;97395.00;6169363;28;96977;-63
2022/11/18 07:44:36;;;;;;;;;29.00;27.40;;;;;6.57;60.92;97400.94;6173905;28;96645;-63
2022/11/18 07:47:40;;;;;;;;;21.00;20.00;;;;;6.50;60.96;97388.47;6184728;28;96693;-63
2022/11/18 07:50:43;;;;;;;;;24.40;22.60;;;;;6.52;61.07;97383.72;6185428;28;96610;-62
2022/11/18 07:53:49;;;;;;;;;24.75;23.00;;;;;6.55;60.87;97377.06;6185485;28;96928;-63
2022/11/18 07:56:54;;;;;;;;;23.60;23.00;;;;;6.42;61.14;97377.28;6183470;28;96463;-63
2022/11/18 07:59:57;;;;;;;;;22.40;22.40;;;;;6.53;61.17;97389.88;6174676;28;97557;-63
2022/11/18 08:03:00;;;;;;;;;20.00;19.00;;;;;6.58;60.87;97387.31;6172366;28;97615;-63
2022/11/18 08:06:06;;;;;;;;;25.00;23.00;;;;;6.61;60.75;97392.19;6169688;28;97022;-63
2022/11/18 08:09:10;;;;;;;;;24.00;21.00;;;;;6.60;61.03;97384.41;6170086;28;98637;-62
2022/11/18 08:12:14;;;;;;;;;20.60;20.00;;;;;6.52;60.76;97389.06;6178844;28;96808;-63
2022/11/18 08:15:17;;;;;;;;;22.00;20.80;;;;;6.50;60.53;97393.81;6172942;28;96318;-62
2022/11/18 08:18:21;;;;;;;;;23.60;23.00;;;;;6.35;60.67;97376.59;6164943;28;96215;-63
2022/11/18 08:21:25;;;;;;;;;22.40;21.00;;;;;6.58;60.45;97392.69;6171880;28;97424;-63
2022/11/18 08:24:28;;;;;;;;;20.40;19.00;;;;;6.53;60.31;97400.59;6176680;28;96294;-63
2022/11/18 08:27:33;;;;;;;;;19.80;18.20;;;;;6.50;59.87;97407.22;6172696;28;96592;-63
2022/11/18 08:30:37;;;;;;;;;25.60;25.00;;;;;6.60;60.21;97411.97;6175012;28;96500;-63
2022/11/18 08:33:41;;;;;;;;;26.00;24.50;;;;;6.62;60.07;97409.09;6173876;28;96631;-62
2022/11/18 08:36:44;;;;;;;;;24.50;22.50;;;;;6.56;60.54;97402.78;6170729;28;96387;-63
2022/11/18 08:39:47;;;;;;;;;23.75;22.50;;;;;6.04;60.36;97327.72;6174588;28;96631;-62
2022/11/18 08:42:52;;;;;;;;;20.75;20.00;;;;;6.51;60.26;97406.16;6174183;28;96626;-63
2022/11/18 08:45:55;;;;;;;;;18.40;17.40;;;;;6.56;60.41;97415.34;6185831;28;97557;-63
2022/11/18 08:48:59;;;;;;;;;22.00;20.00;;;;;6.37;60.06;97418.13;6186126;28;96868;-63
2022/11/18 08:52:03;;;;;;;;;17.80;16.00;;;;;6.25;59.58;97406.63;6186557;28;99278;-63
2022/11/18 08:55:06;;;;;;;;;25.80;25.40;;;;;6.49;60.25;97435.03;6186765;28;96275;-63
2022/11/18 08:58:11;;;;;;;;;17.25;15.50;;;;;6.55;60.41;97430.59;6184535;28;97720;-63
2022/11/18 09:01:14;;;;;;;;;26.00;24.00;;;;;6.47;60.19;97434.44;6168621;28;96874;-62
2022/11/18 09:04:18;;;;;;;;;21.00;20.00;;;;;6.57;60.29;97441.91;6185086;28;96871;-63
2022/11/18 09:07:22;;;;;;;;;24.20;22.20;;;;;6.73;60.01;97435.88;6167004;28;96639;-63
2022/11/18 09:10:25;;;;;;;;;20.75;20.00;;;;;6.83;59.73;97436.13;6176875;28;96487;-63
2022/11/18 09:13:30;;;;;;;;;26.60;25.00;;;;;6.90;59.26;97428.75;6185036;28;96226;-63
2022/11/18 09:16:53;;;;;;;;;24.20;22.20;;;;;6.88;59.39;97433.56;6184581;28;96795;-62
2022/11/18 09:19:56;;;;;;;;;21.20;20.20;;;;;6.98;59.21;97427.59;6186851;28;96379;-62
2022/11/18 09:23:00;;;;;;;;;23.00;21.50;;;;;7.09;58.01;97428.63;6168402;28;96723;-62
2022/11/18 09:26:06;;;;;;;;;22.00;20.00;;;;;7.02;57.79;97439.47;6184532;28;96250;-62
2022/11/18 09:29:11;;;;;;;;;23.40;20.40;;;;;7.15;58.22;97436.53;6179599;28;96347;-64
2022/11/18 09:32:14;;;;;;;;;21.00;20.00;;;;;7.28;57.73;97443.53;6184479;28;98271;-62
2022/11/18 09:35:18;;;;;;;;;24.25;23.25;;;;;7.40;57.13;97441.63;6183553;28;96490;-64
2022/11/18 09:38:21;;;;;;;;;21.60;19.80;;;;;7.34;56.23;97445.25;6186820;28;96217;-64
2022/11/18 09:41:43;;;;;;;;;20.00;19.20;;;;;7.30;56.49;97433.38;6190558;28;96264;-64
2022/11/18 09:45:02;;;;;;;;;22.00;20.20;;;;;7.38;56.68;97441.03;6190647;28;96525;-64
2022/11/18 09:48:18;;;;;;;;;22.20;20.80;;;;;7.28;57.05;97441.66;6180405;28;96273;-64
2022/11/18 09:51:25;;;;;;;;;24.50;23.50;;;;;7.20;56.53;97444.69;6189564;28;96462;-64
2022/11/18 09:54:33;;;;;;;;;24.60;24.00;;;;;7.22;56.63;97457.88;6190190;28;96343;-65
2022/11/18 09:57:39;;;;;;;;;22.20;21.20;;;;;7.21;56.82;97438.28;6186926;28;96712;-65
2022/11/18 10:00:45;;;;;;;;;29.80;28.40;;;;;7.31;56.50;97443.88;6189067;28;96547;-65
2022/11/18 10:03:48;;;;;;;;;25.75;23.50;;;;;7.28;55.85;97440.84;6190144;28;96267;-63
2022/11/18 10:06:52;;;;;;;;;27.00;26.00;;;;;7.40;56.08;97444.31;6188125;28;96484;-67
2022/11/18 10:09:57;;;;;;;;;28.00;26.75;;;;;7.49;55.91;97445.56;6182763;28;96851;-64
2022/11/18 10:13:10;;;;;;;;;22.00;19.80;;;;;7.21;55.09;97438.28;6189917;28;96267;-64
2022/11/18 10:16:31;;;;;;;;;24.60;24.00;;;;;7.31;55.28;97435.84;6169574;28;96917;-63
2022/11/18 10:19:40;;;;;;;;;26.00;24.80;;;;;7.42;55.69;97441.41;6189532;28;97103;-64
2022/11/18 10:22:51;;;;;;;;;25.00;24.00;;;;;7.40;54.98;97433.59;6176445;28;96701;-64
2022/11/18 10:25:54;;;;;;;;;26.40;25.40;;;;;7.43;55.04;97435.78;6167152;28;96811;-64
2022/11/18 10:28:58;;;;;;;;;26.00;24.50;;;;;7.40;55.61;97444.31;6176784;28;96413;-64
2022/11/18 10:32:05;;;;;;;;;27.40;25.20;;;;;7.45;55.76;97431.00;6171266;28;97185;-64
2022/11/18 10:35:25;;;;;;;;;26.50;25.50;;;;;7.41;55.84;97421.81;6172041;28;96228;-64
2022/11/18 10:38:29;;;;;;;;;23.20;22.60;;;;;7.36;55.14;97424.41;6169360;28;96451;-63
2022/11/18 10:41:39;;;;;;;;;25.40;23.40;;;;;7.23;55.66;97430.03;6167411;28;97823;-64
2022/11/18 10:44:42;;;;;;;;;24.20;22.20;;;;;7.16;55.87;97440.03;6167219;28;96636;-64
2022/11/18 10:47:58;;;;;;;;;24.00;22.60;;;;;7.15;56.07;97452.63;6173276;28;96459;-63
2022/11/18 10:51:21;;;;;;;;;24.00;22.75;;;;;7.21;55.72;97450.88;6167824;28;96455;-64
2022/11/18 10:54:25;;;;;;;;;23.20;21.00;;;;;7.20;55.81;97449.25;6181815;28;98235;-63
2022/11/18 10:57:35;;;;;;;;;21.00;19.00;;;;;7.20;55.54;97447.38;6188764;28;96432;-63
2022/11/18 11:00:46;;;;;;;;;22.00;20.00;;;;;7.10;55.45;97435.63;6187491;28;97533;-64
2022/11/18 11:04:03;;;;;;;;;25.40;24.00;;;;;7.14;55.23;97448.31;6172468;28;97034;-63
2022/11/18 11:07:15;;;;;;;;;23.80;21.80;;;;;7.19;55.57;97451.09;6167052;28;96859;-63
2022/11/18 11:10:23;;;;;;;;;27.00;25.00;;;;;7.17;55.32;97452.41;6189076;28;98513;-64
2022/11/18 11:13:30;;;;;;;;;25.00;24.60;;;;;7.19;55.56;97453.78;6189639;28;96377;-64
2022/11/18 11:16:41;;;;;;;;;24.00;22.60;;;;;7.31;55.37;97462.63;6189114;28;96300;-64
2022/11/18 11:19:51;;;;;;;;;22.00;20.00;;;;;7.33;55.08;97443.66;6191301;28;97019;-64
2022/11/18 11:22:56;;;;;;;;;27.00;25.00;;;;;7.36;54.68;97462.75;6189127;28;96907;-64
2022/11/18 11:26:03;;;;;;;;;28.50;26.75;;;;;7.35;54.93;97465.66;6169795;28;98338;-64
2022/11/18 11:29:47;;;;;;;;;26.00;25.00;;;;;7.27;55.15;97469.53;6193941;28;97721;-64
2022/11/18 11:33:15;;;;;;;;;25.60;24.60;;;;;7.22;55.14;97460.56;6188897;28;96443;-65
2022/11/18 11:36:35;;;;;;;;;31.20;28.00;;;;;7.22;55.10;97460.56;6170919;28;96517;-63
2022/11/18 11:39:53;;;;;;;;;27.00;25.00;;;;;7.30;55.09;97458.31;6168651;28;96635;-63
2022/11/18 11:43:16;;;;;;;;;28.80;27.80;;;;;7.30;54.78;97450.28;6163953;28;97225;-63
2022/11/18 11:46:28;;;;;;;;;29.25;26.50;;;;;7.17;55.08;97449.72;6169696;28;96934;-63
2022/11/18 11:49:44;;;;;;;;;30.00;27.25;;;;;7.09;55.36;97445.50;6187702;28;96306;-64
2022/11/18 11:53:09;;;;;;;;;27.80;24.40;;;;;7.18;54.97;97449.50;6187484;28;97231;-64
2022/11/18 11:56:18;;;;;;;;;31.40;29.00;;;;;7.09;55.29;97447.38;6181698;28;96427;-63
2022/11/18 11:59:32;;;;;;;;;30.75;27.50;;;;;6.99;55.37;97436.47;6187084;28;96572;-64
2022/11/18 12:02:53;;;;;;;;;35.00;31.40;;;;;7.09;54.68;97424.06;6202839;28;97039;-63
2022/11/18 12:05:57;;;;;;;;;36.60;32.40;;;;;7.05;54.54;97439.00;6186616;28;96242;-62
2022/11/18 12:09:08;;;;;;;;;29.00;28.60;;;;;6.93;54.80;97447.06;6161849;28;98387;-63
2022/11/18 12:12:35;;;;;;;;;31.20;30.00;;;;;6.87;54.93;97439.13;6188237;28;96691;-63
2022/11/18 12:15:48;;;;;;;;;35.00;31.40;;;;;6.71;54.58;97415.72;6177338;28;96213;-63
2022/11/18 12:18:58;;;;;;;;;35.00;32.00;;;;;6.66;54.31;97456.59;6183846;28;96480;-63
2022/11/18 12:22:03;;;;;;;;;30.80;28.80;;;;;6.57;54.66;97470.53;6167911;28;96260;-63
2022/11/18 12:25:54;;;;;;;;;30.00;27.80;;;;;6.51;55.20;97461.56;6184926;28;96517;-63
2022/11/18 12:29:22;;;;;;;;;30.20;28.00;;;;;6.50;55.03;97460.75;6184474;28;96449;-62
2022/11/18 12:32:41;;;;;;;;;33.00;30.00;;;;;6.53;55.22;97454.13;6186720;28;96292;-65
2022/11/18 12:35:48;;;;;;;;;31.00;29.40;;;;;6.51;55.52;97448.19;6186337;28;96976;-64
2022/11/18 12:38:52;;;;;;;;;29.40;27.40;;;;;6.48;55.32;97473.56;6163384;28;96952;-64
2022/11/18 12:45:50;;;;;;;;;33.80;30.00;;;;;6.47;55.45;97468.44;6172681;28;97182;-63
2022/11/18 12:48:54;;;;;;;;;28.40;24.00;;;;;6.42;55.67;97477.16;6173538;28;97560;-63
2022/11/18 12:51:58;;;;;;;;;33.50;31.50;;;;;6.32;55.93;97468.88;6166252;28;96694;-61
2022/11/18 12:55:11;;;;;;;;;30.60;29.60;;;;;6.26;55.11;97475.13;6178510;28;97608;-61
2022/11/18 12:58:27;;;;;;;;;32.60;31.00;;;;;6.25;54.83;97478.88;6177111;28;96582;-62
2022/11/18 13:01:34;;;;;;;;;35.40;30.00;;;;;6.20;54.80;97483.28;6184647;28;96980;-62
2022/11/18 13:04:38;;;;;;;;;36.50;31.25;;;;;6.18;55.21;97482.66;6173222;28;96811;-62
2022/11/18 13:18:12;;;;;;;;;32.25;28.50;;;;;6.17;55.35;97478.34;6180701;28;97761;-62
2022/11/18 13:24:45;;;;;;;;;39.40;33.40;;;;;6.18;54.88;97509.44;6178443;28;96702;-62
2022/11/18 13:27:56;;;;;;;;;33.60;30.40;;;;;6.23;54.40;97514.91;6177946;28;96847;-62
2022/11/18 13:31:07;;;;;;;;;32.00;28.75;;;;;6.23;54.29;97514.91;6181720;28;96708;-63
2022/11/18 13:34:18;;;;;;;;;35.00;31.40;;;;;6.12;54.34;97519.16;6184953;28;96563;-61
2022/11/18 13:37:23;;;;;;;;;35.40;32.00;;;;;6.14;54.63;97502.91;6175968;28;97002;-63
2022/11/18 13:40:29;;;;;;;;;34.60;30.80;;;;;6.14;54.63;97509.06;6162951;28;97465;-62
2022/11/18 13:43:33;;;;;;;;;37.00;33.00;;;;;6.15;54.69;97509.88;6169975;28;96878;-62
2022/11/18 13:46:39;;;;;;;;;34.00;30.00;;;;;6.13;53.87;97510.09;6175523;28;97070;-62
2022/11/18 13:49:55;;;;;;;;;28.60;27.80;;;;;6.00;53.73;97516.47;6186303;28;96214;-62
2022/11/18 13:53:08;;;;;;;;;37.60;33.00;;;;;6.01;53.90;97512.72;6185438;28;96358;-62
2022/11/18 13:56:19;;;;;;;;;30.20;28.40;;;;;5.98;53.94;97517.72;6185909;28;96903;-61
2022/11/18 13:59:23;;;;;;;;;34.00;30.00;;;;;5.96;53.64;97523.28;6171754;28;98434;-61
2022/11/18 14:02:29;;;;;;;;;27.80;25.00;;;;;6.00;53.26;97537.88;6178871;28;96477;-62
2022/11/18 14:05:32;;;;;;;;;37.00;32.00;;;;;5.96;53.19;97542.00;6184912;28;96205;-62
2022/11/18 14:08:38;;;;;;;;;32.00;30.00;;;;;6.00;53.31;97537.03;6185553;28;96772;-62
2022/11/18 14:11:43;;;;;;;;;30.25;27.25;;;;;6.06;53.31;97544.16;6185956;28;97239;-61
2022/11/18 14:14:46;;;;;;;;;33.00;30.50;;;;;6.06;52.53;97547.63;6185489;28;97448;-62
2022/11/18 14:17:56;;;;;;;;;30.25;28.50;;;;;6.03;53.39;97534.72;6185264;28;96213;-62
2022/11/18 14:21:01;;;;;;;;;36.00;31.00;;;;;6.07;53.17;97546.59;6177080;28;97492;-62
2022/11/18 14:24:06;;;;;;;;;39.40;33.40;;;;;6.01;52.16;97547.50;6186056;28;97393;-62
2022/11/18 14:27:28;;;;;;;;;37.50;33.00;;;;;6.07;52.37;97541.25;6188466;28;96095;-61
2022/11/18 14:30:36;;;;;;;;;36.00;31.80;;;;;6.09;52.14;97541.03;6190822;28;96473;-62
2022/11/18 14:33:41;;;;;;;;;37.00;32.00;;;;;6.15;52.41;97547.34;6174273;28;96475;-62
2022/11/18 14:36:45;;;;;;;;;34.00;31.00;;;;;6.08;52.20;97553.59;6179376;28;96427;-61
2022/11/18 14:39:54;;;;;;;;;33.20;31.20;;;;;6.08;51.69;97558.13;6168849;28;98141;-63
2022/11/18 14:42:59;;;;;;;;;36.40;32.20;;;;;5.97;51.64;97529.44;6164328;28;97253;-62
2022/11/18 14:46:05;;;;;;;;;32.20;30.00;;;;;6.07;51.50;97554.63;6169185;28;96865;-62
2022/11/18 14:49:14;;;;;;;;;36.50;32.00;;;;;6.20;50.66;97572.38;6160411;28;96800;-62
2022/11/18 14:52:19;;;;;;;;;30.00;27.50;;;;;6.27;50.69;97572.28;6168687;28;96605;-62
2022/11/18 14:55:22;;;;;;;;;33.20;31.00;;;;;6.26;50.18;97576.00;6170335;28;96627;-62
2022/11/18 14:58:25;;;;;;;;;40.40;32.40;;;;;6.21;50.22;97579.34;6187938;28;97025;-62
2022/11/18 15:01:29;;;;;;;;;31.50;30.00;;;;;6.25;50.69;97583.25;6188638;28;97469;-62